sensor_id;sensor_type;location;lat;lon;timestamp;temperature;humidity
17887;DHT22;9069;52.044;7.472;2024-01-30T00:00:05;10.90;95.20
17887;DHT22;9069;52.044;7.472;2024-01-30T00:02:32;10.90;95.20
17887;DHT22;9069;52.044;7.472;2024-01-30T00:04:59;10.90;95.20
17887;DHT22;9069;52.044;7.472;2024-01-30T00:07:26;10.90;95.20
17887;DHT22;9069;52.044;7.472;2024-01-30T00:09:53;10.90;95.30
17887;DHT22;9069;52.044;7.472;2024-01-30T00:12:21;10.90;95.30
17887;DHT22;9069;52.044;7.472;2024-01-30T00:14:48;10.90;95.30
17887;DHT22;9069;52.044;7.472;2024-01-30T00:17:19;10.90;95.30
17887;DHT22;9069;52.044;7.472;2024-01-30T00:19:47;10.90;95.40
17887;DHT22;9069;52.044;7.472;2024-01-30T00:22:14;10.90;95.40
17887;DHT22;9069;52.044;7.472;2024-01-30T00:24:41;10.90;95.40
17887;DHT22;9069;52.044;7.472;2024-01-30T00:27:08;10.90;95.40
17887;DHT22;9069;52.044;7.472;2024-01-30T00:29:35;10.90;95.50
17887;DHT22;9069;52.044;7.472;2024-01-30T00:32:02;10.90;95.40
17887;DHT22;9069;52.044;7.472;2024-01-30T00:34:29;10.90;95.50
17887;DHT22;9069;52.044;7.472;2024-01-30T00:36:56;10.90;95.50
17887;DHT22;9069;52.044;7.472;2024-01-30T00:39:22;10.90;95.60
17887;DHT22;9069;52.044;7.472;2024-01-30T00:41:49;10.90;95.60
17887;DHT22;9069;52.044;7.472;2024-01-30T00:44:16;10.90;95.60
17887;DHT22;9069;52.044;7.472;2024-01-30T00:46:44;10.90;95.60
17887;DHT22;9069;52.044;7.472;2024-01-30T00:49:10;10.90;95.70
17887;DHT22;9069;52.044;7.472;2024-01-30T00:51:37;10.80;95.70
17887;DHT22;9069;52.044;7.472;2024-01-30T00:54:04;10.80;95.80
17887;DHT22;9069;52.044;7.472;2024-01-30T00:56:32;10.80;95.80
17887;DHT22;9069;52.044;7.472;2024-01-30T00:58:59;10.80;96.20
17887;DHT22;9069;52.044;7.472;2024-01-30T01:01:26;10.80;96.00
17887;DHT22;9069;52.044;7.472;2024-01-30T01:03:53;10.80;96.00
17887;DHT22;9069;52.044;7.472;2024-01-30T01:06:20;10.80;96.10
17887;DHT22;9069;52.044;7.472;2024-01-30T01:08:47;10.80;96.10
17887;DHT22;9069;52.044;7.472;2024-01-30T01:11:14;10.90;96.20
17887;DHT22;9069;52.044;7.472;2024-01-30T01:13:41;10.90;96.20
17887;DHT22;9069;52.044;7.472;2024-01-30T01:16:07;10.90;96.20
17887;DHT22;9069;52.044;7.472;2024-01-30T01:18:34;10.80;96.30
17887;DHT22;9069;52.044;7.472;2024-01-30T01:21:01;10.90;96.30
17887;DHT22;9069;52.044;7.472;2024-01-30T01:23:28;10.90;96.40
17887;DHT22;9069;52.044;7.472;2024-01-30T01:25:55;10.90;96.40
17887;DHT22;9069;52.044;7.472;2024-01-30T01:28:27;10.90;96.40
17887;DHT22;9069;52.044;7.472;2024-01-30T01:30:54;10.90;96.40
17887;DHT22;9069;52.044;7.472;2024-01-30T01:33:27;10.90;96.40
17887;DHT22;9069;52.044;7.472;2024-01-30T01:35:54;10.90;96.40
17887;DHT22;9069;52.044;7.472;2024-01-30T01:38:21;10.90;96.40
17887;DHT22;9069;52.044;7.472;2024-01-30T01:40:48;10.90;96.40
17887;DHT22;9069;52.044;7.472;2024-01-30T01:43:15;10.90;96.40
17887;DHT22;9069;52.044;7.472;2024-01-30T01:45:42;11.00;96.50
17887;DHT22;9069;52.044;7.472;2024-01-30T01:48:09;10.90;96.40
17887;DHT22;9069;52.044;7.472;2024-01-30T01:50:37;11.00;96.50
17887;DHT22;9069;52.044;7.472;2024-01-30T01:53:07;11.00;96.50
17887;DHT22;9069;52.044;7.472;2024-01-30T01:55:35;11.00;96.60
17887;DHT22;9069;52.044;7.472;2024-01-30T01:58:02;11.00;96.50
17887;DHT22;9069;52.044;7.472;2024-01-30T02:00:29;11.00;96.40
17887;DHT22;9069;52.044;7.472;2024-01-30T02:02:57;11.00;96.50
17887;DHT22;9069;52.044;7.472;2024-01-30T02:05:25;11.00;96.50
17887;DHT22;9069;52.044;7.472;2024-01-30T02:07:54;11.00;96.50
17887;DHT22;9069;52.044;7.472;2024-01-30T02:10:21;10.90;96.50
17887;DHT22;9069;52.044;7.472;2024-01-30T02:12:49;11.00;96.50
17887;DHT22;9069;52.044;7.472;2024-01-30T02:15:16;10.90;96.50
17887;DHT22;9069;52.044;7.472;2024-01-30T02:17:43;11.00;96.50
17887;DHT22;9069;52.044;7.472;2024-01-30T02:20:11;11.00;96.60
17887;DHT22;9069;52.044;7.472;2024-01-30T02:22:40;11.00;96.60
17887;DHT22;9069;52.044;7.472;2024-01-30T02:25:07;11.00;96.60
17887;DHT22;9069;52.044;7.472;2024-01-30T02:27:34;11.00;96.60
17887;DHT22;9069;52.044;7.472;2024-01-30T02:30:01;11.00;96.50
17887;DHT22;9069;52.044;7.472;2024-01-30T02:32:28;11.00;96.50
17887;DHT22;9069;52.044;7.472;2024-01-30T02:34:55;11.00;96.50
17887;DHT22;9069;52.044;7.472;2024-01-30T02:37:22;10.90;96.50
17887;DHT22;9069;52.044;7.472;2024-01-30T02:39:49;11.00;96.50
17887;DHT22;9069;52.044;7.472;2024-01-30T02:42:16;11.00;96.50
17887;DHT22;9069;52.044;7.472;2024-01-30T02:44:42;10.90;96.50
17887;DHT22;9069;52.044;7.472;2024-01-30T02:47:09;11.00;96.90
17887;DHT22;9069;52.044;7.472;2024-01-30T02:49:36;10.90;96.50
17887;DHT22;9069;52.044;7.472;2024-01-30T02:52:03;10.90;96.50
17887;DHT22;9069;52.044;7.472;2024-01-30T02:54:30;10.90;96.50
17887;DHT22;9069;52.044;7.472;2024-01-30T02:56:57;10.90;96.50
17887;DHT22;9069;52.044;7.472;2024-01-30T02:59:24;10.90;96.50
17887;DHT22;9069;52.044;7.472;2024-01-30T03:01:51;10.90;96.50
17887;DHT22;9069;52.044;7.472;2024-01-30T03:04:18;10.90;96.50
17887;DHT22;9069;52.044;7.472;2024-01-30T03:06:46;11.00;96.60
17887;DHT22;9069;52.044;7.472;2024-01-30T03:09:18;10.90;96.60
17887;DHT22;9069;52.044;7.472;2024-01-30T03:11:45;10.90;96.60
17887;DHT22;9069;52.044;7.472;2024-01-30T03:14:12;10.90;96.50
17887;DHT22;9069;52.044;7.472;2024-01-30T03:16:38;10.90;96.50
17887;DHT22;9069;52.044;7.472;2024-01-30T03:19:06;10.80;96.50
17887;DHT22;9069;52.044;7.472;2024-01-30T03:21:35;10.80;96.50
17887;DHT22;9069;52.044;7.472;2024-01-30T03:24:01;10.80;96.50
17887;DHT22;9069;52.044;7.472;2024-01-30T03:26:28;10.80;96.50
17887;DHT22;9069;52.044;7.472;2024-01-30T03:28:55;10.80;96.50
17887;DHT22;9069;52.044;7.472;2024-01-30T03:31:22;10.80;96.40
17887;DHT22;9069;52.044;7.472;2024-01-30T03:33:49;10.80;96.50
17887;DHT22;9069;52.044;7.472;2024-01-30T03:36:16;10.80;96.50
17887;DHT22;9069;52.044;7.472;2024-01-30T03:38:43;10.80;96.50
17887;DHT22;9069;52.044;7.472;2024-01-30T03:41:09;10.80;96.50
17887;DHT22;9069;52.044;7.472;2024-01-30T03:43:37;10.80;96.60
17887;DHT22;9069;52.044;7.472;2024-01-30T03:46:04;10.80;96.50
17887;DHT22;9069;52.044;7.472;2024-01-30T03:48:31;10.70;96.40
17887;DHT22;9069;52.044;7.472;2024-01-30T03:50:58;10.80;96.50
17887;DHT22;9069;52.044;7.472;2024-01-30T03:53:25;10.70;96.40
17887;DHT22;9069;52.044;7.472;2024-01-30T03:55:52;10.70;96.40
17887;DHT22;9069;52.044;7.472;2024-01-30T03:58:18;10.70;96.40
17887;DHT22;9069;52.044;7.472;2024-01-30T04:00:45;10.70;96.40
17887;DHT22;9069;52.044;7.472;2024-01-30T04:03:14;10.60;96.50
17887;DHT22;9069;52.044;7.472;2024-01-30T04:05:41;10.60;96.50
17887;DHT22;9069;52.044;7.472;2024-01-30T04:08:09;10.60;96.50
17887;DHT22;9069;52.044;7.472;2024-01-30T04:10:35;10.60;96.50
17887;DHT22;9069;52.044;7.472;2024-01-30T04:13:02;10.60;96.50
17887;DHT22;9069;52.044;7.472;2024-01-30T04:15:29;10.60;96.50
17887;DHT22;9069;52.044;7.472;2024-01-30T04:17:59;10.60;96.50
17887;DHT22;9069;52.044;7.472;2024-01-30T04:20:26;10.60;96.60
17887;DHT22;9069;52.044;7.472;2024-01-30T04:22:53;10.50;96.50
17887;DHT22;9069;52.044;7.472;2024-01-30T04:25:20;10.50;96.50
17887;DHT22;9069;52.044;7.472;2024-01-30T04:27:47;10.50;96.50
17887;DHT22;9069;52.044;7.472;2024-01-30T04:30:15;10.50;96.60
17887;DHT22;9069;52.044;7.472;2024-01-30T04:32:42;10.50;96.60
17887;DHT22;9069;52.044;7.472;2024-01-30T04:35:09;10.50;96.60
17887;DHT22;9069;52.044;7.472;2024-01-30T04:37:38;10.50;96.60
17887;DHT22;9069;52.044;7.472;2024-01-30T04:40:05;10.50;96.60
17887;DHT22;9069;52.044;7.472;2024-01-30T04:42:33;10.50;96.70
17887;DHT22;9069;52.044;7.472;2024-01-30T04:44:59;10.50;96.70
17887;DHT22;9069;52.044;7.472;2024-01-30T04:47:26;10.50;96.70
17887;DHT22;9069;52.044;7.472;2024-01-30T04:49:53;10.50;96.70
17887;DHT22;9069;52.044;7.472;2024-01-30T04:52:20;10.50;96.80
17887;DHT22;9069;52.044;7.472;2024-01-30T04:54:47;10.40;96.80
17887;DHT22;9069;52.044;7.472;2024-01-30T04:57:14;10.50;96.90
17887;DHT22;9069;52.044;7.472;2024-01-30T04:59:42;10.40;96.90
17887;DHT22;9069;52.044;7.472;2024-01-30T05:02:09;10.40;96.90
17887;DHT22;9069;52.044;7.472;2024-01-30T05:04:36;10.50;96.90
17887;DHT22;9069;52.044;7.472;2024-01-30T05:07:03;10.40;96.90
17887;DHT22;9069;52.044;7.472;2024-01-30T05:09:30;10.40;96.90
17887;DHT22;9069;52.044;7.472;2024-01-30T05:11:57;10.40;96.90
17887;DHT22;9069;52.044;7.472;2024-01-30T05:14:24;10.40;96.90
17887;DHT22;9069;52.044;7.472;2024-01-30T05:16:51;10.40;97.00
17887;DHT22;9069;52.044;7.472;2024-01-30T05:19:18;10.40;97.00
17887;DHT22;9069;52.044;7.472;2024-01-30T05:21:45;10.40;97.00
17887;DHT22;9069;52.044;7.472;2024-01-30T05:24:12;10.40;97.00
17887;DHT22;9069;52.044;7.472;2024-01-30T05:26:39;10.40;97.00
17887;DHT22;9069;52.044;7.472;2024-01-30T05:29:06;10.40;97.00
17887;DHT22;9069;52.044;7.472;2024-01-30T05:31:34;10.40;97.10
17887;DHT22;9069;52.044;7.472;2024-01-30T05:34:01;10.40;97.10
17887;DHT22;9069;52.044;7.472;2024-01-30T05:36:28;10.40;97.00
17887;DHT22;9069;52.044;7.472;2024-01-30T05:38:56;10.40;97.00
17887;DHT22;9069;52.044;7.472;2024-01-30T05:41:23;10.40;97.10
17887;DHT22;9069;52.044;7.472;2024-01-30T05:43:49;10.40;97.10
17887;DHT22;9069;52.044;7.472;2024-01-30T05:46:16;10.40;97.10
17887;DHT22;9069;52.044;7.472;2024-01-30T05:48:43;10.40;97.10
17887;DHT22;9069;52.044;7.472;2024-01-30T05:51:10;10.40;97.10
17887;DHT22;9069;52.044;7.472;2024-01-30T05:53:37;10.40;97.10
17887;DHT22;9069;52.044;7.472;2024-01-30T05:56:04;10.50;97.20
17887;DHT22;9069;52.044;7.472;2024-01-30T05:58:32;10.50;97.20
17887;DHT22;9069;52.044;7.472;2024-01-30T06:00:59;10.40;97.10
17887;DHT22;9069;52.044;7.472;2024-01-30T06:03:26;10.50;97.20
17887;DHT22;9069;52.044;7.472;2024-01-30T06:05:52;10.40;97.20
17887;DHT22;9069;52.044;7.472;2024-01-30T06:08:19;10.40;97.20
17887;DHT22;9069;52.044;7.472;2024-01-30T06:10:46;10.40;97.20
17887;DHT22;9069;52.044;7.472;2024-01-30T06:13:14;10.50;97.20
17887;DHT22;9069;52.044;7.472;2024-01-30T06:15:41;10.40;97.20
17887;DHT22;9069;52.044;7.472;2024-01-30T06:18:08;10.40;97.20
17887;DHT22;9069;52.044;7.472;2024-01-30T06:20:35;10.40;97.20
17887;DHT22;9069;52.044;7.472;2024-01-30T06:23:02;10.40;97.20
17887;DHT22;9069;52.044;7.472;2024-01-30T06:25:29;10.50;97.30
17887;DHT22;9069;52.044;7.472;2024-01-30T06:27:56;10.50;97.30
17887;DHT22;9069;52.044;7.472;2024-01-30T06:30:23;10.40;97.30
17887;DHT22;9069;52.044;7.472;2024-01-30T06:32:49;10.40;97.30
17887;DHT22;9069;52.044;7.472;2024-01-30T06:35:16;10.50;97.30
17887;DHT22;9069;52.044;7.472;2024-01-30T06:37:44;10.50;97.30
17887;DHT22;9069;52.044;7.472;2024-01-30T06:40:11;10.40;97.30
17887;DHT22;9069;52.044;7.472;2024-01-30T06:42:38;10.50;97.30
17887;DHT22;9069;52.044;7.472;2024-01-30T06:45:05;10.50;97.30
17887;DHT22;9069;52.044;7.472;2024-01-30T06:47:32;10.50;97.30
17887;DHT22;9069;52.044;7.472;2024-01-30T06:49:59;10.40;97.30
17887;DHT22;9069;52.044;7.472;2024-01-30T06:52:26;10.50;97.30
17887;DHT22;9069;52.044;7.472;2024-01-30T06:54:53;10.40;97.30
17887;DHT22;9069;52.044;7.472;2024-01-30T06:57:21;10.50;97.30
17887;DHT22;9069;52.044;7.472;2024-01-30T06:59:48;10.50;97.40
17887;DHT22;9069;52.044;7.472;2024-01-30T07:02:14;10.50;97.40
17887;DHT22;9069;52.044;7.472;2024-01-30T07:04:41;10.50;97.40
17887;DHT22;9069;52.044;7.472;2024-01-30T07:07:13;10.50;97.50
17887;DHT22;9069;52.044;7.472;2024-01-30T07:09:41;10.50;97.50
17887;DHT22;9069;52.044;7.472;2024-01-30T07:12:08;10.50;97.50
17887;DHT22;9069;52.044;7.472;2024-01-30T07:14:35;10.50;97.50
17887;DHT22;9069;52.044;7.472;2024-01-30T07:17:02;10.50;97.50
17887;DHT22;9069;52.044;7.472;2024-01-30T07:19:29;10.60;97.50
17887;DHT22;9069;52.044;7.472;2024-01-30T07:21:56;10.50;97.50
17887;DHT22;9069;52.044;7.472;2024-01-30T07:24:23;10.50;97.50
17887;DHT22;9069;52.044;7.472;2024-01-30T07:26:50;10.50;97.50
17887;DHT22;9069;52.044;7.472;2024-01-30T07:29:16;10.50;97.50
17887;DHT22;9069;52.044;7.472;2024-01-30T07:31:43;10.60;97.50
17887;DHT22;9069;52.044;7.472;2024-01-30T07:34:10;10.60;97.50
17887;DHT22;9069;52.044;7.472;2024-01-30T07:36:37;10.60;97.60
17887;DHT22;9069;52.044;7.472;2024-01-30T07:39:05;10.60;97.60
17887;DHT22;9069;52.044;7.472;2024-01-30T07:41:32;10.60;97.50
17887;DHT22;9069;52.044;7.472;2024-01-30T07:44:00;10.60;97.50
17887;DHT22;9069;52.044;7.472;2024-01-30T07:46:28;10.70;97.60
17887;DHT22;9069;52.044;7.472;2024-01-30T07:48:55;10.60;97.50
17887;DHT22;9069;52.044;7.472;2024-01-30T07:51:24;10.70;97.50
17887;DHT22;9069;52.044;7.472;2024-01-30T07:53:50;10.70;97.60
17887;DHT22;9069;52.044;7.472;2024-01-30T07:56:18;10.70;97.60
17887;DHT22;9069;52.044;7.472;2024-01-30T07:58:44;10.70;97.60
17887;DHT22;9069;52.044;7.472;2024-01-30T08:01:11;10.70;97.60
17887;DHT22;9069;52.044;7.472;2024-01-30T08:03:39;10.80;97.60
17887;DHT22;9069;52.044;7.472;2024-01-30T08:06:08;10.80;97.70
17887;DHT22;9069;52.044;7.472;2024-01-30T08:08:35;10.80;97.70
17887;DHT22;9069;52.044;7.472;2024-01-30T08:11:02;10.80;97.70
17887;DHT22;9069;52.044;7.472;2024-01-30T08:13:28;10.80;97.70
17887;DHT22;9069;52.044;7.472;2024-01-30T08:15:55;10.80;97.70
17887;DHT22;9069;52.044;7.472;2024-01-30T08:18:22;10.80;97.80
17887;DHT22;9069;52.044;7.472;2024-01-30T08:20:49;10.90;97.80
17887;DHT22;9069;52.044;7.472;2024-01-30T08:23:16;10.90;97.90
17887;DHT22;9069;52.044;7.472;2024-01-30T08:25:43;11.00;97.90
17887;DHT22;9069;52.044;7.472;2024-01-30T08:28:09;11.00;98.00
17887;DHT22;9069;52.044;7.472;2024-01-30T08:30:36;11.00;98.00
17887;DHT22;9069;52.044;7.472;2024-01-30T08:33:05;11.00;98.00
17887;DHT22;9069;52.044;7.472;2024-01-30T08:35:32;11.00;98.00
17887;DHT22;9069;52.044;7.472;2024-01-30T08:38:00;11.10;98.00
17887;DHT22;9069;52.044;7.472;2024-01-30T08:40:27;11.10;98.00
17887;DHT22;9069;52.044;7.472;2024-01-30T08:42:55;11.10;98.10
17887;DHT22;9069;52.044;7.472;2024-01-30T08:45:23;11.20;98.00
17887;DHT22;9069;52.044;7.472;2024-01-30T08:47:50;11.20;98.00
17887;DHT22;9069;52.044;7.472;2024-01-30T08:50:16;11.20;98.00
17887;DHT22;9069;52.044;7.472;2024-01-30T08:52:43;11.30;98.10
17887;DHT22;9069;52.044;7.472;2024-01-30T08:55:13;11.30;98.10
17887;DHT22;9069;52.044;7.472;2024-01-30T08:57:40;11.30;98.10
17887;DHT22;9069;52.044;7.472;2024-01-30T09:00:08;11.30;98.10
17887;DHT22;9069;52.044;7.472;2024-01-30T09:02:36;11.40;98.10
17887;DHT22;9069;52.044;7.472;2024-01-30T09:05:03;11.40;98.10
17887;DHT22;9069;52.044;7.472;2024-01-30T09:07:30;11.50;98.10
17887;DHT22;9069;52.044;7.472;2024-01-30T09:09:57;11.50;98.10
17887;DHT22;9069;52.044;7.472;2024-01-30T09:12:24;11.50;98.10
17887;DHT22;9069;52.044;7.472;2024-01-30T09:14:51;11.60;98.10
17887;DHT22;9069;52.044;7.472;2024-01-30T09:17:18;11.60;98.10
17887;DHT22;9069;52.044;7.472;2024-01-30T09:19:46;11.70;98.10
17887;DHT22;9069;52.044;7.472;2024-01-30T09:22:13;11.70;98.10
17887;DHT22;9069;52.044;7.472;2024-01-30T09:24:40;11.70;98.10
17887;DHT22;9069;52.044;7.472;2024-01-30T09:27:07;11.70;98.10
17887;DHT22;9069;52.044;7.472;2024-01-30T09:29:34;11.80;98.00
17887;DHT22;9069;52.044;7.472;2024-01-30T09:32:04;11.80;98.00
17887;DHT22;9069;52.044;7.472;2024-01-30T09:34:31;11.80;98.00
17887;DHT22;9069;52.044;7.472;2024-01-30T09:36:59;11.90;98.40
17887;DHT22;9069;52.044;7.472;2024-01-30T09:39:27;11.90;98.10
17887;DHT22;9069;52.044;7.472;2024-01-30T09:44:29;11.90;98.10
17887;DHT22;9069;52.044;7.472;2024-01-30T09:46:57;12.00;98.00
17887;DHT22;9069;52.044;7.472;2024-01-30T09:49:32;12.00;98.10
17887;DHT22;9069;52.044;7.472;2024-01-30T09:52:00;12.10;98.00
17887;DHT22;9069;52.044;7.472;2024-01-30T09:54:29;12.10;98.00
17887;DHT22;9069;52.044;7.472;2024-01-30T09:57:00;12.10;98.00
17887;DHT22;9069;52.044;7.472;2024-01-30T09:59:27;12.10;98.00
17887;DHT22;9069;52.044;7.472;2024-01-30T10:01:54;12.20;98.00
17887;DHT22;9069;52.044;7.472;2024-01-30T10:04:21;12.20;98.00
17887;DHT22;9069;52.044;7.472;2024-01-30T10:06:48;12.30;98.00
17887;DHT22;9069;52.044;7.472;2024-01-30T10:09:16;12.30;98.00
17887;DHT22;9069;52.044;7.472;2024-01-30T10:11:42;12.30;98.00
17887;DHT22;9069;52.044;7.472;2024-01-30T10:14:09;12.30;98.00
17887;DHT22;9069;52.044;7.472;2024-01-30T10:16:36;12.30;98.00
17887;DHT22;9069;52.044;7.472;2024-01-30T10:19:03;12.40;98.10
17887;DHT22;9069;52.044;7.472;2024-01-30T10:21:30;12.40;98.10
17887;DHT22;9069;52.044;7.472;2024-01-30T10:23:57;12.40;98.10
17887;DHT22;9069;52.044;7.472;2024-01-30T10:26:24;12.40;98.10
17887;DHT22;9069;52.044;7.472;2024-01-30T10:28:51;12.40;98.10
17887;DHT22;9069;52.044;7.472;2024-01-30T10:31:18;12.50;98.20
17887;DHT22;9069;52.044;7.472;2024-01-30T10:33:48;12.50;98.30
17887;DHT22;9069;52.044;7.472;2024-01-30T10:36:16;12.50;98.30
17887;DHT22;9069;52.044;7.472;2024-01-30T10:38:47;12.60;98.40
17887;DHT22;9069;52.044;7.472;2024-01-30T10:41:20;12.60;98.40
17887;DHT22;9069;52.044;7.472;2024-01-30T10:44:02;12.70;98.50
17887;DHT22;9069;52.044;7.472;2024-01-30T10:46:32;12.70;98.60
17887;DHT22;9069;52.044;7.472;2024-01-30T10:49:01;12.80;98.60
17887;DHT22;9069;52.044;7.472;2024-01-30T10:51:31;12.90;98.60
17887;DHT22;9069;52.044;7.472;2024-01-30T10:53:58;12.90;98.60
17887;DHT22;9069;52.044;7.472;2024-01-30T10:56:26;13.00;98.60
17887;DHT22;9069;52.044;7.472;2024-01-30T10:58:54;13.10;98.70
17887;DHT22;9069;52.044;7.472;2024-01-30T11:01:22;13.10;98.70
17887;DHT22;9069;52.044;7.472;2024-01-30T11:03:54;13.20;98.70
17887;DHT22;9069;52.044;7.472;2024-01-30T11:06:24;13.30;98.90
17887;DHT22;9069;52.044;7.472;2024-01-30T11:11:30;13.50;99.00
17887;DHT22;9069;52.044;7.472;2024-01-30T11:14:00;13.60;99.00
17887;DHT22;9069;52.044;7.472;2024-01-30T11:16:32;13.70;99.00
17887;DHT22;9069;52.044;7.472;2024-01-30T11:19:00;13.80;98.90
17887;DHT22;9069;52.044;7.472;2024-01-30T11:21:29;13.90;98.90
17887;DHT22;9069;52.044;7.472;2024-01-30T11:23:56;14.00;98.90
17887;DHT22;9069;52.044;7.472;2024-01-30T11:26:31;14.10;98.80
17887;DHT22;9069;52.044;7.472;2024-01-30T11:28:58;14.10;98.60
17887;DHT22;9069;52.044;7.472;2024-01-30T11:31:30;14.20;98.50
17887;DHT22;9069;52.044;7.472;2024-01-30T11:33:58;14.30;98.50
17887;DHT22;9069;52.044;7.472;2024-01-30T11:36:26;14.40;98.40
17887;DHT22;9069;52.044;7.472;2024-01-30T11:38:56;14.50;98.30
17887;DHT22;9069;52.044;7.472;2024-01-30T11:41:23;14.60;98.10
17887;DHT22;9069;52.044;7.472;2024-01-30T11:43:52;14.60;98.10
17887;DHT22;9069;52.044;7.472;2024-01-30T11:46:19;14.70;98.00
17887;DHT22;9069;52.044;7.472;2024-01-30T11:48:46;14.80;97.90
17887;DHT22;9069;52.044;7.472;2024-01-30T11:51:14;14.80;97.90
17887;DHT22;9069;52.044;7.472;2024-01-30T11:53:41;14.80;97.70
17887;DHT22;9069;52.044;7.472;2024-01-30T11:56:08;14.90;97.60
17887;DHT22;9069;52.044;7.472;2024-01-30T11:58:35;14.90;97.60
17887;DHT22;9069;52.044;7.472;2024-01-30T12:01:02;15.00;97.50
17887;DHT22;9069;52.044;7.472;2024-01-30T12:03:29;15.00;97.40
17887;DHT22;9069;52.044;7.472;2024-01-30T12:05:57;15.10;97.30
17887;DHT22;9069;52.044;7.472;2024-01-30T12:08:25;15.10;97.20
17887;DHT22;9069;52.044;7.472;2024-01-30T12:10:58;15.10;97.20
17887;DHT22;9069;52.044;7.472;2024-01-30T12:13:28;15.10;97.00
17887;DHT22;9069;52.044;7.472;2024-01-30T12:16:00;15.10;97.00
17887;DHT22;9069;52.044;7.472;2024-01-30T12:18:29;15.10;96.90
17887;DHT22;9069;52.044;7.472;2024-01-30T12:20:59;15.10;96.90
17887;DHT22;9069;52.044;7.472;2024-01-30T12:23:29;15.10;96.90
17887;DHT22;9069;52.044;7.472;2024-01-30T12:25:56;15.10;96.90
17887;DHT22;9069;52.044;7.472;2024-01-30T12:28:23;15.10;96.90
17887;DHT22;9069;52.044;7.472;2024-01-30T12:30:50;15.10;96.90
17887;DHT22;9069;52.044;7.472;2024-01-30T12:33:21;15.10;96.90
17887;DHT22;9069;52.044;7.472;2024-01-30T12:35:48;15.10;96.90
17887;DHT22;9069;52.044;7.472;2024-01-30T12:38:28;15.10;96.90
17887;DHT22;9069;52.044;7.472;2024-01-30T12:40:55;15.10;96.80
17887;DHT22;9069;52.044;7.472;2024-01-30T12:43:24;15.10;96.80
17887;DHT22;9069;52.044;7.472;2024-01-30T12:46:04;15.10;96.80
17887;DHT22;9069;52.044;7.472;2024-01-30T12:48:31;15.10;96.70
17887;DHT22;9069;52.044;7.472;2024-01-30T12:50:58;15.00;96.70
17887;DHT22;9069;52.044;7.472;2024-01-30T12:53:25;15.10;96.70
17887;DHT22;9069;52.044;7.472;2024-01-30T12:55:51;15.00;96.70
17887;DHT22;9069;52.044;7.472;2024-01-30T12:58:20;15.10;96.70
17887;DHT22;9069;52.044;7.472;2024-01-30T13:00:47;15.00;96.80
17887;DHT22;9069;52.044;7.472;2024-01-30T13:03:14;15.00;96.80
17887;DHT22;9069;52.044;7.472;2024-01-30T13:05:42;15.00;96.80
17887;DHT22;9069;52.044;7.472;2024-01-30T13:08:09;15.00;96.90
17887;DHT22;9069;52.044;7.472;2024-01-30T13:10:36;15.00;96.90
17887;DHT22;9069;52.044;7.472;2024-01-30T13:13:03;15.00;96.90
17887;DHT22;9069;52.044;7.472;2024-01-30T13:15:29;15.00;96.90
17887;DHT22;9069;52.044;7.472;2024-01-30T13:17:56;15.00;96.90
17887;DHT22;9069;52.044;7.472;2024-01-30T13:20:23;15.10;96.90
17887;DHT22;9069;52.044;7.472;2024-01-30T13:22:50;15.10;96.90
17887;DHT22;9069;52.044;7.472;2024-01-30T13:25:17;15.10;96.90
17887;DHT22;9069;52.044;7.472;2024-01-30T13:27:43;15.10;96.80
17887;DHT22;9069;52.044;7.472;2024-01-30T13:30:11;15.10;96.80
17887;DHT22;9069;52.044;7.472;2024-01-30T13:32:38;15.10;96.70
17887;DHT22;9069;52.044;7.472;2024-01-30T13:35:05;15.20;96.60
17887;DHT22;9069;52.044;7.472;2024-01-30T13:37:33;15.20;96.60
17887;DHT22;9069;52.044;7.472;2024-01-30T13:40:00;15.20;96.60
17887;DHT22;9069;52.044;7.472;2024-01-30T13:42:31;15.20;96.50
17887;DHT22;9069;52.044;7.472;2024-01-30T13:44:58;15.20;96.50
17887;DHT22;9069;52.044;7.472;2024-01-30T13:47:26;15.20;96.60
17887;DHT22;9069;52.044;7.472;2024-01-30T13:49:56;15.20;96.60
17887;DHT22;9069;52.044;7.472;2024-01-30T13:52:22;15.20;96.50
17887;DHT22;9069;52.044;7.472;2024-01-30T13:54:57;15.10;96.40
17887;DHT22;9069;52.044;7.472;2024-01-30T13:57:25;15.20;96.40
17887;DHT22;9069;52.044;7.472;2024-01-30T13:59:52;15.20;96.40
17887;DHT22;9069;52.044;7.472;2024-01-30T14:02:18;15.10;96.30
17887;DHT22;9069;52.044;7.472;2024-01-30T14:04:45;15.20;96.30
17887;DHT22;9069;52.044;7.472;2024-01-30T14:07:12;15.10;96.20
17887;DHT22;9069;52.044;7.472;2024-01-30T14:09:39;15.10;96.10
17887;DHT22;9069;52.044;7.472;2024-01-30T14:12:08;15.10;96.10
17887;DHT22;9069;52.044;7.472;2024-01-30T14:14:35;15.10;96.00
17887;DHT22;9069;52.044;7.472;2024-01-30T14:17:03;15.10;95.90
17887;DHT22;9069;52.044;7.472;2024-01-30T14:19:29;15.10;95.90
17887;DHT22;9069;52.044;7.472;2024-01-30T14:21:56;15.10;95.80
17887;DHT22;9069;52.044;7.472;2024-01-30T14:24:23;15.10;95.80
17887;DHT22;9069;52.044;7.472;2024-01-30T14:26:50;15.00;95.70
17887;DHT22;9069;52.044;7.472;2024-01-30T14:29:17;15.00;95.70
17887;DHT22;9069;52.044;7.472;2024-01-30T14:31:44;15.00;95.60
17887;DHT22;9069;52.044;7.472;2024-01-30T14:34:11;15.00;95.70
17887;DHT22;9069;52.044;7.472;2024-01-30T14:36:39;14.90;95.70
17887;DHT22;9069;52.044;7.472;2024-01-30T14:39:06;14.90;95.60
17887;DHT22;9069;52.044;7.472;2024-01-30T14:41:34;14.90;95.60
17887;DHT22;9069;52.044;7.472;2024-01-30T14:44:01;14.90;95.60
17887;DHT22;9069;52.044;7.472;2024-01-30T14:46:28;14.90;95.70
17887;DHT22;9069;52.044;7.472;2024-01-30T14:48:56;14.90;95.70
17887;DHT22;9069;52.044;7.472;2024-01-30T14:51:24;14.90;95.70
17887;DHT22;9069;52.044;7.472;2024-01-30T14:53:51;14.80;95.70
17887;DHT22;9069;52.044;7.472;2024-01-30T14:56:18;14.90;95.70
17887;DHT22;9069;52.044;7.472;2024-01-30T14:58:45;14.90;95.70
17887;DHT22;9069;52.044;7.472;2024-01-30T15:01:11;14.80;95.70
17887;DHT22;9069;52.044;7.472;2024-01-30T15:03:38;14.80;95.70
17887;DHT22;9069;52.044;7.472;2024-01-30T15:06:06;14.80;95.70
17887;DHT22;9069;52.044;7.472;2024-01-30T15:08:33;14.80;95.70
17887;DHT22;9069;52.044;7.472;2024-01-30T15:11:02;14.80;95.70
17887;DHT22;9069;52.044;7.472;2024-01-30T15:13:31;14.70;95.70
17887;DHT22;9069;52.044;7.472;2024-01-30T15:15:58;14.70;95.60
17887;DHT22;9069;52.044;7.472;2024-01-30T15:18:27;14.70;95.50
17887;DHT22;9069;52.044;7.472;2024-01-30T15:20:54;14.70;95.30
17887;DHT22;9069;52.044;7.472;2024-01-30T15:23:20;14.60;94.70
17887;DHT22;9069;52.044;7.472;2024-01-30T15:25:47;14.60;95.00
17887;DHT22;9069;52.044;7.472;2024-01-30T15:28:14;14.60;94.70
17887;DHT22;9069;52.044;7.472;2024-01-30T15:30:41;14.60;94.50
17887;DHT22;9069;52.044;7.472;2024-01-30T15:33:10;14.60;94.30
17887;DHT22;9069;52.044;7.472;2024-01-30T15:35:37;14.50;94.10
17887;DHT22;9069;52.044;7.472;2024-01-30T15:38:05;14.50;94.00
17887;DHT22;9069;52.044;7.472;2024-01-30T15:40:35;14.50;94.20
17887;DHT22;9069;52.044;7.472;2024-01-30T15:43:02;14.40;93.60
17887;DHT22;9069;52.044;7.472;2024-01-30T15:45:29;14.40;93.50
17887;DHT22;9069;52.044;7.472;2024-01-30T15:47:56;14.40;93.40
17887;DHT22;9069;52.044;7.472;2024-01-30T15:50:25;14.40;93.50